AirNav   Everest Fuels
 
 479 users online  

30AL Med Flight 2 Heliport
Danville, Alabama, USA

GOING TO DANVILLE?


FAA INFORMATION EFFECTIVE 16 JULY 2020

Location

FAA Identifier: 30AL
Lat/Long: 34-22-22.8000N 087-04-49.8000W
34-22.380000N 087-04.830000W
34.3730000,-87.0805000
(estimated)
Elevation: 650 ft. / 198 m (estimated)
Time zone: UTC -5 (UTC -6 during Standard Time)
Zip code: 35619

Heliport Operations

Heliport use: Private use. Permission required prior to landing
Activation date: 12/2010
Control tower: no
ARTCC: MEMPHIS CENTER
FSS: ANNISTON FLIGHT SERVICE STATION
Attendance: UNATNDD
Wind indicator: yes
Segmented circle: no
Lights: SS-SR

Heliport Communications

WX AWOS-3PT at CMD (13 nm SE): 124.175 (256-775-7476)
WX ASOS at DCU (18 nm N): 118.375 (256-350-4270)

Nearby radio navigation aids

VOR radial/distance  VOR name  Freq  Var
DCUr204/17.9DECATUR VOR/DME112.8001W
MSLr134/28.5MUSCLE SHOALS VORTAC116.5001E
RQZr219/33.7ROCKET VORTAC112.2002E

Heliport Services

Runway Information

Helipad H1

Dimensions: 60 x 60 ft. / 18 x 18 m
Surface: concrete
Runway edge lights: FLD
Latitude: 34-22.380000N
Longitude: 087-04.830000W
Elevation: 650.0 ft.
Traffic pattern: leftleft
Obstructions: pline
40 FT PLINES 200 FT N OF PAD; 30 FT PLINES 300 FT W OF PAD.

Heliport Ownership and Management from official FAA records

Ownership: Privately-owned
Owner: AIRMETHODS CORP
1030B HWY 157
DANVILLE, AL 35619
Phone 256-754-0180
Manager: PAUL RICHTMYER
1030B HWY 157
DANVILLE, AL 35619
Phone 256-754-0180

Heliport Operational Statistics

Aircraft based on the field: 2
Single engine airplanes: 1
Helicopters: 1
    

Additional Remarks

OWNER DESIRES ARPT NOT BE CHARTED.
FOR CD CTC MEMPHIS ARTCC AT 901-368-8453.

Instrument Procedures

There are no published instrument procedures at 30AL.

Some nearby airports with instrument procedures:

5M0 - Hartselle-Morgan County Regional Airport (8 nm E)
KCMD - Cullman Regional Airport-Folsom Field (13 nm SE)
KDCU - Pryor Field Regional Airport (18 nm N)
9A4 - Courtland Airport (22 nm NW)
KHSV - Huntsville International Airport-Carl T Jones Field (22 nm NE)
 
Loc | Ops | Rwys | IFR | FBO | Links
Com | Nav | Svcs | Stats | Notes
Aerial photo
No photo
 
Sectional chart

 
Airport distance calculator
Flying to Med Flight 2 Heliport? Find the distance to fly.

From to 30AL

Sunrise and sunset
Times for 06-Aug-2020
 Local
(UTC-5)
 Zulu
(UTC)
Morning civil twilight05:3710:37
Sunrise06:0411:04
Sunset19:4400:44
Evening civil twilight20:1101:11

Current date and time
Zulu (UTC)  06-Aug-2020 10:30:10
Local (UTC-5)  06-Aug-2020 05:30:10
 
METAR
KCMD 
13nm SE 
061015Z AUTO 00000KT 10SM CLR 20/19 A3002 RMK AO2 T02000185
KDCU 
18nm N 
060953Z AUTO 02003KT 10SM BKN095 21/19 A3000 RMK AO2 SLP149 T02060194
KHSV 
22nm NE 
060953Z AUTO 33003KT 10SM SCT095 22/19 A2999 RMK AO2 SLP148 T02170194
TAF
KHSV 
22nm NE 
060528Z 0606/0706 34004KT P6SM SCT060 FM061600 35005KT P6SM SCT050
NOTAMs
Click for the latest NOTAMs
NOTAMs are issued by the DoD/FAA and will open in a separate window not controlled by AirNav.

 

 
 

Would you like to see your business listed on this page?

 If your business provides an interesting product or service to pilots, flight crews, aircraft, or users of the Med Flight 2 Heliport, you should consider listing it here.  To start the listing process, click on the button below
 
Add a business
 

Other Pages about Med Flight 2 Heliport

Update a link
 
Copyright © AirNav, LLC. All rights reserved. Privacy Policy  Contact